createdAt,value
2022-09-20T00:03:23.298Z,16.87
2022-09-20T00:08:26.106Z,14.83
2022-09-20T00:13:30.102Z,14.74
2022-09-20T00:18:32.931Z,17.28
2022-09-20T00:23:36.656Z,16.83
2022-09-20T00:28:39.660Z,14.81
2022-09-20T00:34:01.201Z,16.89
2022-09-20T00:39:04.350Z,16.82
2022-09-20T00:44:41.627Z,14.28
2022-09-20T00:49:44.760Z,15.22
2022-09-20T00:54:49.070Z,17.37
2022-09-20T00:59:53.047Z,15.78
2022-09-20T01:04:57.766Z,15.98
2022-09-20T01:10:00.645Z,17.46
2022-09-20T01:15:05.975Z,14.98
2022-09-20T01:20:14.850Z,14.80
2022-09-20T01:25:45.611Z,17.35
2022-09-20T01:31:00.294Z,16.70
2022-09-20T01:36:06.343Z,14.25
2022-09-20T01:41:20.642Z,13.51
2022-09-20T01:46:34.580Z,13.09
2022-09-20T01:51:56.653Z,12.78
2022-09-20T01:57:08.363Z,12.59
2022-09-20T02:02:34.370Z,12.52
2022-09-20T02:07:59.145Z,12.54
2022-09-20T02:13:11.553Z,12.56
2022-09-20T02:18:26.670Z,12.61
2022-09-20T02:23:30.066Z,12.73
2022-09-20T02:28:58.972Z,12.67
2022-09-20T02:34:13.856Z,12.64
2022-09-20T02:39:35.505Z,12.67
2022-09-20T02:44:50.283Z,13.88
2022-09-20T02:50:01.452Z,16.88
2022-09-20T02:55:25.480Z,17.80
2022-09-20T03:00:40.040Z,15.30
2022-09-20T03:05:45.424Z,14.06
2022-09-20T03:11:12.491Z,14.15
2022-09-20T03:16:51.911Z,14.19
2022-09-20T03:22:02.329Z,14.16
2022-09-20T03:27:31.960Z,14.16
2022-09-20T03:32:40.807Z,14.05
2022-09-20T03:38:02.118Z,13.95
2022-09-20T03:43:26.350Z,14.12
2022-09-20T03:48:47.576Z,16.43
2022-09-20T03:54:08.915Z,16.78
2022-09-20T03:59:32.097Z,14.51
2022-09-20T04:04:44.828Z,16.79
2022-09-20T04:10:18.760Z,16.93
2022-09-20T04:15:43.591Z,14.14
2022-09-20T04:21:17.541Z,15.61
2022-09-20T04:26:28.501Z,17.38
2022-09-20T04:31:54.530Z,16.41
2022-09-20T04:37:02.872Z,14.02
2022-09-20T04:42:11.625Z,15.38
2022-09-20T04:47:55.997Z,17.29
2022-09-20T04:53:04.429Z,14.80
2022-09-20T04:58:37.747Z,14.60
2022-09-20T05:03:55.498Z,17.27
2022-09-20T05:09:29.329Z,16.33
2022-09-20T05:14:47.286Z,14.52
2022-09-20T05:20:24.494Z,15.23
2022-09-20T05:25:42.142Z,15.57
2022-09-20T05:30:48.085Z,15.76
2022-09-20T05:36:12.737Z,15.81
2022-09-20T05:41:37.487Z,16.06
2022-09-20T05:46:46.088Z,16.30
2022-09-20T05:51:59.436Z,16.39
2022-09-20T05:57:39.108Z,16.54
2022-09-20T06:02:44.770Z,16.51
2022-09-20T06:08:03.818Z,16.51
2022-09-20T06:13:31.644Z,16.57
2022-09-20T06:18:34.457Z,16.52
2022-09-20T06:23:37.551Z,16.94
2022-09-20T06:28:45.731Z,17.43
2022-09-20T06:34:03.195Z,16.76
2022-09-20T06:40:02.520Z,18.24
2022-09-20T06:45:05.972Z,17.36
2022-09-20T06:50:16.514Z,18.27
2022-09-20T06:55:29.008Z,18.93
2022-09-20T07:00:32.291Z,18.59
2022-09-20T07:05:36.443Z,19.43
2022-09-20T07:10:39.843Z,18.67
2022-09-20T07:15:43.268Z,18.95
2022-09-20T07:20:46.468Z,20.33
2022-09-20T07:25:49.382Z,22.26
2022-09-20T07:30:52.277Z,24.00
2022-09-20T07:35:56.146Z,24.18
2022-09-20T07:41:02.377Z,23.68
2022-09-20T07:46:06.221Z,22.85
2022-09-20T07:51:13.005Z,21.95
2022-09-20T07:56:18.851Z,21.05
2022-09-20T08:01:22.912Z,20.42
2022-09-20T08:06:27.045Z,19.95
2022-09-20T08:11:30.969Z,19.07
2022-09-20T08:16:38.775Z,18.48
2022-09-20T08:21:41.796Z,19.95
2022-09-20T08:26:45.946Z,20.54
2022-09-20T08:31:49.103Z,20.35
2022-09-20T08:36:56.687Z,20.14
2022-09-20T08:42:15.323Z,20.10
2022-09-20T08:47:23.774Z,20.17
2022-09-20T08:52:36.649Z,20.22
2022-09-20T08:57:40.012Z,19.98
2022-09-20T09:02:42.913Z,19.34
2022-09-20T09:07:47.150Z,18.71
2022-09-20T09:12:51.181Z,18.57
2022-09-20T09:17:54.126Z,18.55
2022-09-20T09:23:06.975Z,18.44
2022-09-20T09:28:09.723Z,17.91
2022-09-20T09:33:30.219Z,17.53
2022-09-20T09:38:36.419Z,17.61
2022-09-20T09:43:40.612Z,17.71
2022-09-20T09:48:47.668Z,17.54
2022-09-20T09:53:51.686Z,17.19
2022-09-20T09:59:17.358Z,17.00
2022-09-20T10:04:43.167Z,17.76
2022-09-20T10:10:04.450Z,18.53
2022-09-20T10:15:36.970Z,18.02
2022-09-20T10:21:13.796Z,17.70
2022-09-20T10:26:26.636Z,17.70
2022-09-20T10:31:45.106Z,17.65
2022-09-20T10:36:55.936Z,17.58
2022-09-20T10:42:36.788Z,17.70
2022-09-20T10:48:09.488Z,17.77
2022-09-20T10:53:31.141Z,17.55
2022-09-20T10:59:12.864Z,17.52
2022-09-20T11:04:18.414Z,17.18
2022-09-20T11:09:27.270Z,16.84
2022-09-20T11:14:41.250Z,16.81
2022-09-20T11:19:56.830Z,17.28
2022-09-20T11:25:47.493Z,17.86
2022-09-20T11:30:56.405Z,18.26
2022-09-20T11:36:06.771Z,18.24
2022-09-20T11:41:15.612Z,18.09
2022-09-20T11:46:28.041Z,17.95
2022-09-20T11:51:52.793Z,17.78
2022-09-20T11:56:57.929Z,17.73
2022-09-20T12:02:05.349Z,17.93
2022-09-20T12:07:18.253Z,18.07
2022-09-20T12:12:44.148Z,18.27
2022-09-20T12:17:47.009Z,18.49
2022-09-20T12:22:50.327Z,18.54
2022-09-20T12:27:53.120Z,18.37
2022-09-20T12:33:03.613Z,18.41
2022-09-20T12:38:21.562Z,18.58
2022-09-20T12:43:29.422Z,18.76
2022-09-20T12:48:37.299Z,18.80
2022-09-20T12:53:40.616Z,18.67
2022-09-20T12:58:54.779Z,18.57
2022-09-20T13:04:40.488Z,18.59
2022-09-20T13:09:44.515Z,18.54
2022-09-20T13:14:48.143Z,18.25
2022-09-20T13:19:53.092Z,18.09
2022-09-20T13:25:07.486Z,18.08
2022-09-20T13:30:22.246Z,18.04
2022-09-20T13:35:32.471Z,18.27
2022-09-20T13:40:36.800Z,18.48
2022-09-20T13:45:43.722Z,18.09
2022-09-20T13:50:52.753Z,17.44
2022-09-20T13:55:56.837Z,16.80
2022-09-20T14:01:06.396Z,16.51
2022-09-20T14:06:15.298Z,16.27
2022-09-20T14:11:31.166Z,16.65
2022-09-20T14:16:39.377Z,17.69
2022-09-20T14:21:43.673Z,16.90
2022-09-20T14:27:21.130Z,16.37
2022-09-20T14:32:35.913Z,16.26
2022-09-20T14:37:48.454Z,17.17
2022-09-20T14:43:03.598Z,16.37
2022-09-20T14:48:26.402Z,16.10
2022-09-20T14:53:29.826Z,16.64
2022-09-20T14:58:34.483Z,17.08
2022-09-20T15:03:41.309Z,16.17
2022-09-20T15:08:46.783Z,16.91
2022-09-20T15:13:49.934Z,16.90
2022-09-20T15:18:52.737Z,16.06
2022-09-20T15:23:55.638Z,16.51
2022-09-20T15:28:58.851Z,16.81
2022-09-20T15:34:01.753Z,17.14
2022-09-20T15:39:05.276Z,17.67
2022-09-20T15:44:08.484Z,17.42
2022-09-20T15:49:12.512Z,15.86
2022-09-20T15:54:15.732Z,15.55
2022-09-20T15:59:21.804Z,16.41
2022-09-20T16:04:27.270Z,16.73
2022-09-20T16:09:30.886Z,17.07
2022-09-20T16:14:36.656Z,17.35
2022-09-20T16:19:40.429Z,17.54
2022-09-20T16:24:43.698Z,17.73
2022-09-20T16:29:47.702Z,17.77
2022-09-20T16:34:51.426Z,17.19
2022-09-20T16:39:54.338Z,15.46
2022-09-20T16:44:57.459Z,15.15
2022-09-20T16:50:00.574Z,15.44
2022-09-20T16:55:05.138Z,15.59
2022-09-20T17:00:10.718Z,15.81
2022-09-20T17:05:14.400Z,15.93
2022-09-20T17:10:17.304Z,15.96
2022-09-20T17:15:20.223Z,16.04
2022-09-20T17:20:30.999Z,16.14
2022-09-20T17:25:33.902Z,16.18
2022-09-20T17:30:36.807Z,16.05
2022-09-20T17:35:39.715Z,16.07
2022-09-20T17:40:43.422Z,16.10
2022-09-20T17:45:46.233Z,16.19
2022-09-20T17:50:58.152Z,16.19
2022-09-20T17:56:02.248Z,16.09
2022-09-20T18:01:12.800Z,16.06
2022-09-20T18:06:18.950Z,15.98
2022-09-20T18:11:27.349Z,16.10
2022-09-20T18:16:33.711Z,16.17
2022-09-20T18:21:39.368Z,16.23
2022-09-20T18:26:42.337Z,16.21
2022-09-20T18:31:50.684Z,16.24
2022-09-20T18:36:56.236Z,16.22
2022-09-20T18:42:00.231Z,16.19
2022-09-20T18:47:05.016Z,16.28
2022-09-20T18:52:10.890Z,16.24
2022-09-20T18:57:15.660Z,16.15
2022-09-20T19:03:11.171Z,16.08
2022-09-20T19:08:53.807Z,15.99
2022-09-20T19:14:29.390Z,15.96
2022-09-20T19:19:51.225Z,15.93
2022-09-20T19:25:03.560Z,15.93
2022-09-20T19:30:07.707Z,15.79
2022-09-20T19:35:28.474Z,15.84
2022-09-20T19:41:18.312Z,15.88
2022-09-20T19:46:37.006Z,16.06
2022-09-20T19:51:43.044Z,16.08
2022-09-20T19:56:58.835Z,16.06
2022-09-20T20:02:02.701Z,16.31
2022-09-20T20:07:27.706Z,16.47
2022-09-20T20:12:38.305Z,16.53
2022-09-20T20:18:12.254Z,16.55
2022-09-20T20:23:32.955Z,16.50
2022-09-20T20:28:36.950Z,16.44
2022-09-20T20:33:40.195Z,16.46
2022-09-20T20:38:52.441Z,16.48
2022-09-20T20:43:56.453Z,16.53
2022-09-20T20:48:59.454Z,16.42
2022-09-20T20:54:04.882Z,16.50
2022-09-20T20:59:07.929Z,16.47
2022-09-20T21:04:11.545Z,16.12
2022-09-20T21:09:14.350Z,15.66
2022-09-20T21:14:17.360Z,15.68
2022-09-20T21:19:21.079Z,15.51
2022-09-20T21:24:23.982Z,15.58
2022-09-20T21:29:26.783Z,15.62
2022-09-20T21:34:29.686Z,15.73
2022-09-20T21:39:32.489Z,15.68
2022-09-20T21:44:35.394Z,15.72
2022-09-20T21:49:38.604Z,15.74
2022-09-20T21:54:42.542Z,15.81
2022-09-20T21:59:45.334Z,15.55
2022-09-20T22:04:48.259Z,15.55
2022-09-20T22:09:51.038Z,15.54
2022-09-20T22:14:53.842Z,15.55
2022-09-20T22:19:57.050Z,15.46
2022-09-20T22:24:59.852Z,15.46
2022-09-20T22:30:05.117Z,15.40
2022-09-20T22:35:08.977Z,15.19
2022-09-20T22:40:11.865Z,15.24
2022-09-20T22:45:14.763Z,15.21
2022-09-20T22:50:17.652Z,15.22
2022-09-20T22:55:20.552Z,15.10
2022-09-20T23:00:23.559Z,14.93
2022-09-20T23:05:27.662Z,14.96
2022-09-20T23:10:30.494Z,15.08
2022-09-20T23:15:33.914Z,15.00
2022-09-20T23:20:36.814Z,15.06
2022-09-20T23:25:39.719Z,15.03
2022-09-20T23:30:42.649Z,15.02
2022-09-20T23:35:46.044Z,15.05
2022-09-20T23:40:48.843Z,15.05
2022-09-20T23:45:51.783Z,15.19
2022-09-20T23:50:55.262Z,15.06
2022-09-20T23:55:58.369Z,15.08
